Time;durP1;ratioP1;P1;durP2;ratioP2;P2;SDS_P1;SDS_P2;PMS_P1;PMS_P2;Temp;Humidity;BMP_temperature;BMP_pressure;BME280_temperature;BME280_humidity;BME280_pressure;Samples;Min_cycle;Max_cycle;Signal;HPM_P1;HPM_P2
2022/11/18 00:01:15;;;;;;;11.33;10.10;;;;;;;0.61;88.28;99202.55;1744586;82;21433;-86
2022/11/18 00:03:42;;;;;;;13.05;10.35;;;;;;;0.62;88.12;99221.44;1745129;82;21092;-86
2022/11/18 00:06:15;;;;;;;14.35;10.95;;;;;;;0.60;88.14;99233.14;1746032;82;20848;-86
2022/11/18 00:08:42;;;;;;;13.75;12.18;;;;;;;0.63;88.21;99242.94;1744605;82;21288;-87
2022/11/18 00:14:17;;;;;;;14.70;12.65;;;;;;;0.64;88.06;99259.63;1744399;82;20841;-87
2022/11/18 00:16:29;;;;;;;13.90;11.88;;;;;;;0.72;88.06;99291.58;1744667;82;20936;-86
2022/11/18 00:18:55;;;;;;;15.65;11.97;;;;;;;0.75;87.93;99298.72;1744593;82;20904;-86
2022/11/18 00:21:22;;;;;;;15.10;12.35;;;;;;;0.78;87.84;99299.91;1744366;82;21149;-86
2022/11/18 00:23:48;;;;;;;13.95;11.55;;;;;;;0.81;87.88;99308.80;1744494;82;21401;-86
2022/11/18 00:26:15;;;;;;;14.05;12.25;;;;;;;0.88;87.87;99308.55;1744504;82;20944;-87
2022/11/18 00:28:41;;;;;;;14.07;11.97;;;;;;;0.92;87.76;99299.78;1744331;82;20892;-87
2022/11/18 00:31:11;;;;;;;14.35;11.43;;;;;;;0.94;87.57;99307.84;1744404;82;20916;-87
2022/11/18 00:33:37;;;;;;;13.30;10.85;;;;;;;0.99;87.48;99308.94;1744472;82;21402;-87
2022/11/18 00:36:09;;;;;;;14.00;12.10;;;;;;;1.02;87.11;99309.66;1744422;82;20916;-87
2022/11/18 00:38:36;;;;;;;11.60;9.58;;;;;;;0.99;86.66;99317.97;1744501;82;20968;-87
2022/11/18 00:41:11;;;;;;;14.58;11.18;;;;;;;0.97;86.38;99328.81;1744537;82;21426;-88
2022/11/18 00:43:38;;;;;;;12.03;10.75;;;;;;;0.92;86.05;99313.98;1743673;82;20968;-88
2022/11/18 00:46:06;;;;;;;13.35;11.12;;;;;;;0.91;86.09;99307.12;1744434;82;21465;-87
2022/11/18 00:48:35;;;;;;;13.70;11.35;;;;;;;0.87;85.91;99305.56;1746844;82;20994;-86
2022/11/18 00:51:10;;;;;;;12.68;10.68;;;;;;;0.80;85.22;99303.69;1746926;82;20892;-86
2022/11/18 00:53:37;;;;;;;12.07;10.43;;;;;;;0.71;85.09;99307.52;1747031;80;20936;-86
2022/11/18 00:56:04;;;;;;;12.33;10.90;;;;;;;0.62;85.11;99305.28;1751998;80;20999;-87
2022/11/18 00:58:33;;;;;;;15.60;12.25;;;;;;;0.55;85.23;99311.59;1751145;82;21221;-87
2022/11/18 01:00:59;;;;;;;13.83;11.60;;;;;;;0.49;85.18;99319.14;1750251;82;20920;-87
2022/11/18 01:03:27;;;;;;;13.60;10.85;;;;;;;0.47;85.46;99321.36;1750377;82;20964;-86
2022/11/18 01:05:53;;;;;;;14.00;11.43;;;;;;;0.50;85.75;99322.09;1750224;82;20948;-87
2022/11/18 01:08:20;;;;;;;14.75;11.75;;;;;;;0.52;85.76;99313.84;1750471;82;20884;-88
2022/11/18 01:10:47;;;;;;;14.60;11.22;;;;;;;0.54;85.42;99309.93;1750327;82;21163;-87
2022/11/18 01:13:19;;;;;;;14.60;12.33;;;;;;;0.53;85.50;99310.81;1750381;82;21480;-87
2022/11/18 01:15:56;;;;;;;14.20;11.12;;;;;;;0.51;85.17;99303.58;1750451;82;20956;-86
2022/11/18 01:18:27;;;;;;;15.00;11.50;;;;;;;0.45;84.93;99305.14;1750373;82;21014;-87
2022/11/18 01:20:53;;;;;;;14.28;11.90;;;;;;;0.38;84.86;99314.86;1750340;82;21509;-88
2022/11/18 01:23:21;;;;;;;12.70;11.08;;;;;;;0.33;84.79;99315.47;1750389;82;21191;-87
2022/11/18 01:25:48;;;;;;;14.28;11.22;;;;;;;0.28;84.93;99318.69;1750045;82;20987;-87
2022/11/18 01:28:17;;;;;;;16.07;11.40;;;;;;;0.26;85.14;99330.80;1751921;82;20995;-88
2022/11/18 01:30:44;;;;;;;14.20;10.60;;;;;;;0.29;85.30;99331.95;1750348;82;20974;-87
2022/11/18 01:33:12;;;;;;;12.90;10.70;;;;;;;0.34;85.44;99341.20;1750198;82;20880;-87
2022/11/18 01:35:41;;;;;;;15.60;13.05;;;;;;;0.36;85.19;99341.98;1750327;82;21285;-88
2022/11/18 01:38:10;;;;;;;14.58;12.30;;;;;;;0.35;85.19;99346.73;1750067;82;20888;-88
2022/11/18 01:40:37;;;;;;;12.15;10.80;;;;;;;0.37;85.31;99344.11;1750095;82;20983;-87
2022/11/18 01:43:17;;;;;;;13.72;11.12;;;;;;;0.43;85.37;99346.91;1750407;82;21006;-86
2022/11/18 01:45:46;;;;;;;15.48;11.53;;;;;;;0.43;85.18;99351.61;1750480;82;20881;-87
2022/11/18 01:48:30;;;;;;;16.12;13.22;;;;;;;0.45;85.17;99356.72;1751277;82;21187;-86
2022/11/18 01:51:07;;;;;;;13.75;11.15;;;;;;;0.48;85.18;99365.61;1749926;82;20908;-87
2022/11/18 01:53:41;;;;;;;14.90;12.15;;;;;;;0.49;85.06;99370.72;1750190;82;21544;-87
2022/11/18 01:56:11;;;;;;;16.55;12.78;;;;;;;0.50;84.95;99367.23;1750095;82;20888;-87
2022/11/18 01:58:45;;;;;;;15.03;12.35;;;;;;;0.47;84.67;99378.10;1750254;82;20920;-87
2022/11/18 02:01:12;;;;;;;14.28;11.22;;;;;;;0.45;84.70;99376.89;1750273;82;21254;-87
2022/11/18 02:03:40;;;;;;;16.77;13.25;;;;;;;0.46;84.65;99381.14;1750021;82;20877;-86
2022/11/18 02:06:07;;;;;;;16.00;12.88;;;;;;;0.44;84.54;99385.97;1750285;82;20938;-87
2022/11/18 02:08:36;;;;;;;14.33;11.97;;;;;;;0.44;84.66;99395.83;1750088;82;20947;-87
2022/11/18 02:11:03;;;;;;;17.17;11.57;;;;;;;0.50;84.61;99408.95;1750371;82;20947;-88
2022/11/18 02:13:34;;;;;;;14.70;12.25;;;;;;;0.51;84.35;99400.30;1750217;82;21322;-86
2022/11/18 02:16:15;;;;;;;14.58;11.25;;;;;;;0.49;84.19;99395.22;1750087;81;20908;-88
2022/11/18 02:19:01;;;;;;;16.02;12.05;;;;;;;0.47;84.02;99413.78;1726539;82;21373;-86
2022/11/18 02:21:39;;;;;;;17.20;13.30;;;;;;;0.44;84.00;99408.72;1750413;82;20971;-86
2022/11/18 02:24:34;;;;;;;19.17;13.20;;;;;;;0.41;84.00;99415.30;1748843;82;20964;-87
2022/11/18 02:27:36;;;;;;;14.07;11.45;;;;;;;0.44;84.12;99422.91;1751284;81;21261;-87
2022/11/18 02:30:12;;;;;;;15.48;11.95;;;;;;;0.43;83.68;99426.85;1750453;82;21476;-89
2022/11/18 02:32:45;;;;;;;13.90;11.28;;;;;;;0.43;83.55;99419.12;1750450;82;20884;-89
2022/11/18 02:35:43;;;;;;;13.00;11.10;;;;;;;0.35;83.31;99438.27;1750356;82;20892;-86
2022/11/18 02:38:27;;;;;;;14.45;12.20;;;;;;;0.35;83.53;99452.91;1750635;82;21536;-87
2022/11/18 02:41:01;;;;;;;16.52;12.18;;;;;;;0.38;83.62;99460.55;1752107;82;21246;-87
2022/11/18 02:43:38;;;;;;;12.55;10.40;;;;;;;0.40;83.58;99486.67;1751949;82;20924;-88
2022/11/18 02:46:09;;;;;;;14.50;10.50;;;;;;;0.39;83.46;99505.60;1750746;82;20873;-88
2022/11/18 02:48:41;;;;;;;16.07;10.68;;;;;;;0.41;83.27;99524.89;1750265;82;20935;-89
2022/11/18 02:51:08;;;;;;;12.60;10.03;;;;;;;0.40;83.19;99542.54;1750296;82;20964;-86
2022/11/18 02:53:36;;;;;;;14.40;10.98;;;;;;;0.44;83.23;99551.02;1750168;82;21235;-87
2022/11/18 02:56:03;;;;;;;12.25;10.03;;;;;;;0.45;83.35;99550.14;1750521;82;20860;-87
2022/11/18 02:58:30;;;;;;;16.05;10.43;;;;;;;0.45;83.10;99557.42;1751046;82;20869;-87
2022/11/18 03:00:59;;;;;;;11.93;10.43;;;;;;;0.44;83.13;99562.62;1751337;82;20928;-87
2022/11/18 03:03:30;;;;;;;11.50;9.25;;;;;;;0.37;82.95;99560.71;1751260;82;21477;-87
2022/11/18 03:06:06;;;;;;;15.15;11.53;;;;;;;0.30;83.23;99553.64;1750682;82;20872;-88
2022/11/18 03:08:48;;;;;;;13.38;11.35;;;;;;;0.30;83.54;99547.19;1751106;82;20959;-85
2022/11/18 03:12:41;;;;;;;12.13;10.25;;;;;;;0.42;83.66;99525.27;1798910;79;22549;-88
2022/11/18 03:15:19;;;;;;;13.10;10.55;;;;;;;0.40;83.43;99527.93;1759096;80;20921;-86
2022/11/18 03:18:21;;;;;;;13.10;9.70;;;;;;;0.38;83.30;99550.81;1758386;80;21340;-87
2022/11/18 03:20:52;;;;;;;11.88;9.33;;;;;;;0.38;83.27;99567.57;1758571;80;20888;-87
2022/11/18 03:23:35;;;;;;;11.53;9.65;;;;;;;0.41;83.12;99572.15;1758591;80;20928;-87
2022/11/18 03:26:10;;;;;;;13.13;10.75;;;;;;;0.44;83.03;99578.94;1758418;80;20983;-87
2022/11/18 03:28:52;;;;;;;13.05;9.48;;;;;;;0.44;82.95;99594.86;1758627;81;20857;-89
2022/11/18 03:31:41;;;;;;;10.38;9.28;;;;;;;0.47;82.75;99608.51;1720258;82;21143;-85
2022/11/18 03:34:26;;;;;;;13.15;9.10;;;;;;;0.45;82.31;99610.30;1718669;82;20946;-87
2022/11/18 03:36:55;;;;;;;;;;;;;;;0.41;82.39;99605.67;1721326;82;21078;-88
2022/11/18 03:39:22;;;;;;;11.83;9.90;;;;;;;0.38;82.56;99607.08;1718689;82;20129;-87
2022/11/18 03:41:57;;;;;;;13.70;10.48;;;;;;;0.36;82.66;99595.98;1718706;82;21052;-87
2022/11/18 03:44:29;;;;;;;;;;;;;;;0.39;82.77;99603.59;1721296;82;21793;-87
2022/11/18 03:47:13;;;;;;;13.55;10.20;;;;;;;0.43;82.89;99602.22;1718679;82;20171;-87
2022/11/18 03:49:46;;;;;;;12.05;10.05;;;;;;;0.45;82.74;99583.67;1718688;82;20909;-88
2022/11/18 03:52:18;;;;;;;11.83;10.15;;;;;;;0.43;82.33;99573.39;1718857;82;21642;-88
2022/11/18 03:54:47;;;;;;;14.38;10.85;;;;;;;0.39;82.35;99578.27;1718847;82;21538;-89
2022/11/18 03:57:28;;;;;;;12.85;10.05;;;;;;;0.39;82.20;99583.42;1718943;82;21246;-87
2022/11/18 04:00:09;;;;;;;14.28;10.38;;;;;;;0.36;82.28;99600.30;1711502;83;20961;-86
2022/11/18 04:02:35;;;;;;;15.75;9.83;;;;;;;0.36;82.24;99612.73;1720975;82;20913;-87
2022/11/18 04:05:04;;;;;;;14.35;11.28;;;;;;;0.35;82.11;99603.30;1722237;83;20961;-87
2022/11/18 04:07:38;;;;;;;11.63;10.38;;;;;;;0.36;82.07;99598.55;1724754;78;20973;-87
2022/11/18 04:10:15;;;;;;;11.12;9.35;;;;;;;0.34;81.99;99605.95;1760474;78;21137;-87
2022/11/18 04:12:59;;;;;;;12.55;9.65;;;;;;;0.31;81.76;99613.36;1757008;81;20995;-87
2022/11/18 04:15:26;;;;;;;13.30;10.10;;;;;;;0.31;81.71;99627.95;1758927;81;20876;-86
2022/11/18 04:17:53;;;;;;;13.35;10.30;;;;;;;0.27;81.53;99627.66;1741723;81;21481;-87
2022/11/18 04:20:20;;;;;;;11.78;9.63;;;;;;;0.22;81.39;99645.87;1758983;81;20888;-87
2022/11/18 04:22:48;;;;;;;12.68;10.50;;;;;;;0.14;81.13;99668.05;1759090;80;21787;-87
2022/11/18 04:25:15;;;;;;;12.65;10.53;;;;;;;0.13;81.43;99679.23;1758359;81;20884;-87
2022/11/18 04:27:41;;;;;;;13.50;10.60;;;;;;;0.16;81.52;99671.42;1758153;80;21098;-86
2022/11/18 04:30:09;;;;;;;12.68;9.63;;;;;;;0.15;81.51;99675.33;1757936;81;20904;-89
2022/11/18 04:32:36;;;;;;;13.35;10.38;;;;;;;0.17;81.63;99700.61;1758580;81;20890;-90
2022/11/18 04:35:03;;;;;;;13.38;10.30;;;;;;;0.18;81.67;99722.48;1758632;81;21861;-88
2022/11/18 04:37:29;;;;;;;12.43;10.18;;;;;;;0.20;81.50;99736.59;1758282;80;21402;-87
2022/11/18 04:39:56;;;;;;;13.90;10.85;;;;;;;0.22;81.57;99759.76;1758476;81;20865;-87
2022/11/18 04:42:24;;;;;;;13.78;11.12;;;;;;;0.19;81.74;99753.80;1758415;80;21477;-88
2022/11/18 04:44:50;;;;;;;14.25;11.33;;;;;;;0.21;81.93;99748.61;1758950;81;20908;-85
2022/11/18 04:47:17;;;;;;;13.20;10.45;;;;;;;0.23;81.95;99758.44;1759607;81;21969;-86
2022/11/18 04:49:44;;;;;;;12.75;10.48;;;;;;;0.27;82.03;99761.31;1759972;81;20849;-88
2022/11/18 04:52:10;;;;;;;13.18;10.10;;;;;;;0.29;81.87;99765.98;1759962;81;20900;-89
2022/11/18 04:54:37;;;;;;;14.28;10.95;;;;;;;0.29;81.80;99763.83;1758626;81;21476;-88
2022/11/18 04:57:04;;;;;;;13.62;10.50;;;;;;;0.30;81.85;99753.92;1758455;81;20848;-87
2022/11/18 04:59:31;;;;;;;15.63;11.80;;;;;;;0.31;81.80;99737.13;1758152;80;21157;-88
2022/11/18 05:01:59;;;;;;;13.48;9.85;;;;;;;0.28;81.52;99719.61;1758240;81;20900;-87
2022/11/18 05:04:29;;;;;;;12.55;10.45;;;;;;;0.23;81.30;99719.76;1758124;81;20943;-90
2022/11/18 05:06:56;;;;;;;15.95;11.95;;;;;;;0.20;81.22;99752.93;1758215;81;20861;-89
2022/11/18 05:09:23;;;;;;;13.38;11.00;;;;;;;0.22;81.39;99757.18;1758186;80;21088;-89
2022/11/18 05:14:37;;;;;;;12.98;10.03;;;;;;;0.23;81.37;99788.53;1745668;81;21051;-87
2022/11/18 05:17:06;;;;;;;13.38;11.53;;;;;;;0.22;81.41;99804.88;1745098;81;20936;-86
2022/11/18 05:19:38;;;;;;;14.85;10.25;;;;;;;0.20;81.33;99809.65;1745249;81;20979;-89
2022/11/18 05:22:06;;;;;;;13.32;10.15;;;;;;;0.17;81.32;99813.59;1745110;81;20901;-88
2022/11/18 05:24:32;;;;;;;12.90;10.38;;;;;;;0.16;81.34;99816.23;1745006;81;21473;-89
2022/11/18 05:26:58;;;;;;;13.83;10.85;;;;;;;0.18;81.56;99814.45;1744992;80;20917;-90
2022/11/18 05:29:25;;;;;;;14.70;10.88;;;;;;;0.23;81.73;99820.77;1744842;81;21362;-89
2022/11/18 05:31:51;;;;;;;11.63;10.40;;;;;;;0.28;81.69;99831.32;1745102;81;21015;-88
2022/11/18 05:34:18;;;;;;;14.53;11.20;;;;;;;0.31;81.59;99836.41;1744794;80;20905;-90
2022/11/18 05:36:45;;;;;;;14.47;11.05;;;;;;;0.34;81.58;99840.16;1744819;81;21146;-89
2022/11/18 05:39:11;;;;;;;19.37;13.53;;;;;;;0.36;81.47;99846.12;1744627;82;20972;-87
2022/11/18 05:44:27;;;;;;;17.10;10.82;;;;;;;0.39;81.36;99866.65;1744813;81;20940;-87
2022/11/18 05:46:54;;;;;;;13.45;10.40;;;;;;;0.39;81.18;99878.70;1744942;81;20940;-89
2022/11/18 05:49:20;;;;;;;17.80;12.40;;;;;;;0.37;81.31;99881.77;1744827;82;21904;-89
2022/11/18 05:51:47;;;;;;;16.30;12.10;;;;;;;0.39;81.54;99889.02;1744646;81;20897;-88
2022/11/18 05:54:14;;;;;;;15.93;12.07;;;;;;;0.38;81.47;99886.89;1745142;81;20893;-89
2022/11/18 05:56:43;;;;;;;16.15;11.97;;;;;;;0.38;81.45;99888.64;1734954;82;20936;-89
2022/11/18 05:59:12;;;;;;;14.53;11.03;;;;;;;0.34;81.39;99892.19;1745092;81;20944;-88
2022/11/18 06:01:47;;;;;;;16.80;11.95;;;;;;;0.33;81.65;99914.53;1745116;80;21470;-89
2022/11/18 06:04:21;;;;;;;16.12;12.58;;;;;;;0.35;81.85;99921.78;1745540;80;21460;-88
2022/11/18 06:06:50;;;;;;;16.50;13.35;;;;;;;0.41;82.10;99931.09;1746118;81;21055;-88
2022/11/18 06:09:20;;;;;;;17.25;13.45;;;;;;;0.48;82.13;99931.30;1745602;82;20881;-88
2022/11/18 06:11:51;;;;;;;18.40;13.38;;;;;;;0.52;81.87;99935.48;1745818;81;20857;-90
2022/11/18 06:14:28;;;;;;;17.25;13.53;;;;;;;0.59;81.70;99937.44;1745359;81;21217;-90
2022/11/18 06:16:58;;;;;;;16.42;12.82;;;;;;;0.63;81.06;99940.33;1745194;81;20933;-90
2022/11/18 06:19:26;;;;;;;15.55;12.75;;;;;;;0.63;80.85;99942.91;1745085;81;21402;-89
2022/11/18 06:21:54;;;;;;;18.37;14.23;;;;;;;0.65;80.56;99948.87;1745063;81;21533;-89
2022/11/18 06:24:24;;;;;;;14.87;12.68;;;;;;;0.65;80.40;99953.19;1745406;81;20881;-89
2022/11/18 06:26:52;;;;;;;16.00;12.73;;;;;;;0.69;80.43;99957.34;1746567;81;21075;-89
2022/11/18 06:29:19;;;;;;;17.25;13.32;;;;;;;0.76;80.46;99956.29;1745519;81;20916;-90
2022/11/18 06:31:46;;;;;;;17.10;13.13;;;;;;;0.81;80.26;99956.53;1735325;81;21361;-90
2022/11/18 06:34:16;;;;;;;17.90;12.98;;;;;;;0.88;80.24;99959.77;1747469;80;20921;-88
2022/11/18 06:36:43;;;;;;;17.17;13.40;;;;;;;0.96;80.23;99958.26;1745084;81;20932;-88
2022/11/18 06:39:09;;;;;;;19.07;14.60;;;;;;;1.04;79.98;99969.16;1744731;81;21953;-89
2022/11/18 06:41:36;;;;;;;17.05;13.60;;;;;;;1.07;79.87;99969.09;1744966;81;20925;-89
2022/11/18 06:44:02;;;;;;;16.45;12.70;;;;;;;1.15;79.78;99971.41;1744758;81;20944;-89
2022/11/18 06:49:14;;;;;;;15.18;12.47;;;;;;;1.19;79.04;99968.69;1745202;81;21492;-89
2022/11/18 06:51:42;;;;;;;16.00;11.90;;;;;;;1.25;78.87;99965.08;1745126;81;21779;-88
2022/11/18 06:54:10;;;;;;;14.13;12.10;;;;;;;1.29;78.51;99981.30;1745079;82;20901;-89
2022/11/18 06:56:38;;;;;;;15.70;11.75;;;;;;;1.34;78.65;99984.14;1745043;81;21339;-88
2022/11/18 06:59:04;;;;;;;16.12;12.23;;;;;;;1.40;78.50;99980.08;1745064;81;20924;-88
2022/11/18 07:01:38;;;;;;;15.93;12.25;;;;;;;1.48;78.20;99985.44;1745550;81;20905;-88
2022/11/18 07:04:05;;;;;;;14.13;11.83;;;;;;;1.47;77.33;99978.56;1745542;80;21206;-88
2022/11/18 07:06:34;;;;;;;15.55;13.15;;;;;;;1.45;77.37;99981.22;1745807;82;20893;-88
2022/11/18 07:09:03;;;;;;;14.98;11.68;;;;;;;1.46;77.25;99993.23;1745661;81;20958;-89
2022/11/18 07:11:30;;;;;;;14.85;12.47;;;;;;;1.48;76.81;99995.77;1745712;81;20980;-87
2022/11/18 07:13:56;;;;;;;15.98;12.28;;;;;;;1.54;76.91;100002.03;1747067;82;20853;-86
2022/11/18 07:16:25;;;;;;;14.30;11.78;;;;;;;1.57;76.99;99991.13;1747241;78;21149;-86
2022/11/18 07:18:53;;;;;;;14.85;12.60;;;;;;;1.64;77.17;99985.31;1747211;78;20952;-88
2022/11/18 07:21:22;;;;;;;13.80;11.65;;;;;;;1.69;77.21;99974.81;1747382;78;21065;-87
2022/11/18 07:23:49;;;;;;;23.02;11.95;;;;;;;1.68;76.98;99967.52;1747537;78;20869;-87
2022/11/18 07:26:16;;;;;;;15.70;12.45;;;;;;;1.66;76.68;99975.31;1747530;78;20908;-85
2022/11/18 07:28:43;;;;;;;14.40;11.53;;;;;;;1.67;76.59;99980.06;1747288;81;21214;-85
2022/11/18 07:31:15;;;;;;;15.10;11.73;;;;;;;1.70;76.64;99984.28;1747258;82;20928;-85
2022/11/18 07:33:43;;;;;;;15.55;11.20;;;;;;;1.75;76.77;99986.25;1746869;81;21003;-87
2022/11/18 07:36:16;;;;;;;12.13;10.32;;;;;;;1.84;76.66;99990.64;1735213;82;20936;-88
2022/11/18 07:38:45;;;;;;;15.13;11.87;;;;;;;1.92;76.40;99988.27;1745826;81;20931;-88
2022/11/18 07:41:20;;;;;;;12.43;10.70;;;;;;;1.98;76.04;99999.24;1745786;81;21268;-88
2022/11/18 07:43:49;;;;;;;14.18;10.93;;;;;;;2.03;75.69;100002.95;1745131;81;20830;-88
2022/11/18 07:46:23;;;;;;;13.00;10.85;;;;;;;1.99;75.58;100006.55;1745752;82;20937;-87
2022/11/18 07:48:52;;;;;;;12.85;11.48;;;;;;;2.01;75.81;100013.80;1744998;81;20921;-87
2022/11/18 07:51:22;;;;;;;12.73;10.98;;;;;;;2.05;75.63;100005.05;1745178;81;20897;-87
2022/11/18 07:53:49;;;;;;;14.70;12.43;;;;;;;2.17;75.87;100005.05;1745066;80;21236;-87
2022/11/18 07:56:16;;;;;;;15.00;12.65;;;;;;;2.33;75.82;100016.53;1744990;82;20838;-89
2022/11/18 07:58:44;;;;;;;12.65;10.98;;;;;;;2.46;75.10;100031.17;1746016;82;20941;-89
2022/11/18 08:01:18;;;;;;;14.28;11.00;;;;;;;2.56;74.60;100039.47;1746075;81;21453;-89
2022/11/18 08:03:45;;;;;;;13.45;10.72;;;;;;;2.62;73.99;100046.56;1745733;81;20949;-89
2022/11/18 08:06:14;;;;;;;12.43;10.90;;;;;;;2.63;74.07;100053.87;1745584;81;21838;-87
2022/11/18 08:08:42;;;;;;;12.47;11.12;;;;;;;2.66;74.06;100069.28;1745605;81;20992;-88
2022/11/18 08:11:13;;;;;;;13.80;11.90;;;;;;;2.73;74.11;100077.67;1735384;82;20900;-87
2022/11/18 08:13:40;;;;;;;15.63;12.05;;;;;;;2.75;73.79;100073.28;1758569;81;20876;-89
2022/11/18 08:16:16;;;;;;;13.38;11.50;;;;;;;2.71;73.42;100081.59;1760248;80;20951;-90
2022/11/18 08:18:43;;;;;;;14.90;11.55;;;;;;;2.68;73.33;100091.62;1759041;81;21236;-87
2022/11/18 08:21:10;;;;;;;11.33;10.13;;;;;;;2.64;73.38;100091.33;1759001;80;20881;-87
2022/11/18 08:23:37;;;;;;;11.73;10.53;;;;;;;2.62;73.46;100101.34;1759081;81;20856;-86
2022/11/18 08:26:14;;;;;;;12.43;10.08;;;;;;;2.60;73.02;100104.02;1759449;81;20949;-89
2022/11/18 08:28:42;;;;;;;14.30;12.00;;;;;;;2.58;73.08;100108.39;1759335;81;20856;-88
2022/11/18 08:31:14;;;;;;;11.78;10.23;;;;;;;2.59;73.00;100100.17;1759416;81;21134;-87
2022/11/18 08:33:42;;;;;;;11.05;9.65;;;;;;;2.57;72.83;100091.62;1759085;80;20967;-86
2022/11/18 08:36:13;;;;;;;13.70;11.25;;;;;;;2.55;72.73;100098.13;1759498;81;20896;-87
2022/11/18 08:38:41;;;;;;;16.48;12.53;;;;;;;2.52;73.16;100103.88;1758862;81;21284;-88
2022/11/18 08:41:22;;;;;;;10.35;9.30;;;;;;;2.47;73.31;100105.34;1759331;81;21017;-88
2022/11/18 08:43:49;;;;;;;11.57;9.88;;;;;;;2.44;73.35;100116.62;1759324;81;21121;-87
2022/11/18 08:46:18;;;;;;;11.78;10.38;;;;;;;2.39;73.27;100120.28;1758842;81;20888;-89
2022/11/18 08:48:45;;;;;;;13.13;11.60;;;;;;;2.38;73.38;100126.33;1759468;81;20908;-87
2022/11/18 08:51:12;;;;;;;11.33;9.45;;;;;;;2.39;73.62;100131.47;1758340;81;20944;-87
2022/11/18 08:53:41;;;;;;;11.78;10.58;;;;;;;2.34;73.49;100134.67;1758975;81;20928;-88
2022/11/18 08:56:15;;;;;;;12.10;10.48;;;;;;;2.27;73.52;100136.62;1758476;81;21202;-88
2022/11/18 08:58:42;;;;;;;13.13;10.20;;;;;;;2.26;73.77;100129.73;1758037;80;20979;-87
2022/11/18 09:01:10;;;;;;;12.78;9.93;;;;;;;2.33;73.82;100134.71;1758413;81;20932;-89
2022/11/18 09:03:37;;;;;;;12.47;10.05;;;;;;;2.37;74.00;100140.19;1758981;81;20861;-90
2022/11/18 09:06:10;;;;;;;15.75;10.80;;;;;;;2.39;73.96;100149.58;1758884;81;21429;-89
2022/11/18 09:08:39;;;;;;;13.72;11.33;;;;;;;2.41;74.18;100159.89;1758891;81;20837;-90
2022/11/18 09:11:13;;;;;;;13.98;11.48;;;;;;;2.41;74.25;100158.14;1759591;81;20990;-89
2022/11/18 09:13:40;;;;;;;13.43;11.10;;;;;;;2.42;74.20;100163.73;1750004;81;21438;-88
2022/11/18 09:16:07;;;;;;;14.90;10.98;;;;;;;2.46;74.29;100157.98;1746942;80;20972;-88
2022/11/18 09:18:35;;;;;;;12.18;10.85;;;;;;;2.48;74.21;100173.01;1746793;81;20996;-86
2022/11/18 09:21:04;;;;;;;13.68;11.40;;;;;;;2.48;74.23;100175.59;1746553;80;21232;-89
2022/11/18 09:23:33;;;;;;;14.50;11.00;;;;;;;2.49;74.50;100178.14;1745461;81;21376;-87
2022/11/18 09:26:06;;;;;;;12.50;9.75;;;;;;;2.54;74.57;100169.37;1745509;81;20924;-88
2022/11/18 09:28:35;;;;;;;11.30;10.10;;;;;;;2.59;74.38;100172.19;1745333;81;20984;-88
2022/11/18 09:31:07;;;;;;;10.82;9.73;;;;;;;2.66;74.17;100180.59;1744969;80;20959;-87
2022/11/18 09:33:35;;;;;;;10.55;9.45;;;;;;;2.67;74.01;100184.89;1745125;81;21801;-89
2022/11/18 09:36:02;;;;;;;10.55;9.45;;;;;;;2.68;73.62;100187.86;1744926;81;21281;-88
2022/11/18 09:38:29;;;;;;;11.80;10.08;;;;;;;2.69;73.29;100190.83;1745162;81;21358;-87
2022/11/18 09:41:07;;;;;;;14.28;10.48;;;;;;;2.71;73.17;100185.16;1745024;81;20885;-89
2022/11/18 09:44:01;;;;;;;12.98;10.60;;;;;;;2.73;73.06;100189.83;1742441;81;21402;-89
2022/11/18 09:47:01;;;;;;;12.40;10.13;;;;;;;2.75;72.89;100189.79;1745626;81;23525;-88
2022/11/18 09:49:39;;;;;;;14.10;10.82;;;;;;;2.77;72.64;100194.47;1734571;82;20928;-88
2022/11/18 09:52:11;;;;;;;13.55;10.25;;;;;;;2.80;72.70;100203.41;1744194;81;20941;-88
2022/11/18 09:54:38;;;;;;;11.28;10.08;;;;;;;2.76;72.76;100212.17;1738296;82;20858;-89
2022/11/18 09:57:14;;;;;;;12.35;10.70;;;;;;;2.73;72.88;100217.02;1746870;81;20979;-88
2022/11/18 09:59:42;;;;;;;11.55;10.35;;;;;;;2.71;72.71;100214.92;1745323;81;21138;-88
2022/11/18 10:02:49;;;;;;;14.93;10.68;;;;;;;2.73;72.74;100223.95;1745330;81;20889;-88
2022/11/18 10:05:26;;;;;;;13.78;11.18;;;;;;;2.70;72.61;100231.38;1746395;81;20917;-88
2022/11/18 10:08:13;;;;;;;15.13;11.43;;;;;;;2.67;72.92;100234.08;1735778;82;21549;-88
2022/11/18 10:11:14;;;;;;;12.68;10.82;;;;;;;2.66;72.88;100229.78;1746064;81;21375;-88
2022/11/18 10:14:07;;;;;;;15.13;12.07;;;;;;;2.67;73.08;100227.15;1745670;80;21240;-87
2022/11/18 10:16:49;;;;;;;14.87;11.63;;;;;;;2.73;73.33;100236.89;1700966;81;21450;-88
2022/11/18 10:19:21;;;;;;;15.00;12.63;;;;;;;2.72;73.36;100239.94;1745107;81;20909;-87
2022/11/18 10:22:14;;;;;;;14.30;12.55;;;;;;;2.74;73.60;100242.48;1744997;81;20854;-88
2022/11/18 10:24:45;;;;;;;17.40;13.58;;;;;;;2.74;73.32;100245.07;1745175;82;20841;-87
2022/11/18 10:27:13;;;;;;;14.98;13.00;;;;;;;2.73;73.44;100255.84;1745734;82;22093;-88
2022/11/18 10:29:42;;;;;;;19.12;13.32;;;;;;;2.72;73.29;100250.75;1747595;78;20870;-87
2022/11/18 10:32:14;;;;;;;15.38;13.40;;;;;;;2.69;73.22;100256.42;1747853;78;20873;-87
2022/11/18 10:34:56;;;;;;;17.60;14.38;;;;;;;2.69;73.35;100262.02;1747563;78;20952;-89
2022/11/18 10:37:36;;;;;;;23.92;18.00;;;;;;;2.68;73.45;100267.66;1747454;78;20999;-87
2022/11/18 10:40:05;;;;;;;23.70;18.15;;;;;;;2.66;73.49;100263.44;1746072;80;21240;-87
2022/11/18 10:42:44;;;;;;;23.27;18.82;;;;;;;2.65;73.67;100272.11;1745210;81;21015;-88
2022/11/18 10:45:28;;;;;;;27.32;19.40;;;;;;;2.66;73.62;100266.86;1745086;81;20885;-89
2022/11/18 10:48:15;;;;;;;26.00;20.60;;;;;;;2.66;73.73;100269.45;1745542;81;21394;-88
2022/11/18 10:50:45;;;;;;;23.73;17.95;;;;;;;2.63;73.71;100266.97;1736965;81;20960;-90
2022/11/18 10:53:35;;;;;;;24.23;19.50;;;;;;;2.62;73.69;100265.30;1744999;81;21912;-89
2022/11/18 10:56:09;;;;;;;30.72;24.27;;;;;;;2.59;73.80;100269.26;1745231;81;21377;-89
2022/11/18 10:58:51;;;;;;;;;;;;;;;2.58;73.71;100270.17;1747937;81;20892;-89
2022/11/18 11:01:22;;;;;;;40.05;26.87;;;;;;;2.58;73.86;100271.47;1744263;81;20265;-89
2022/11/18 11:04:16;;;;;;;27.52;20.08;;;;;;;2.58;73.77;100286.99;1745183;81;21371;-87
2022/11/18 11:06:44;;;;;;;34.67;22.90;;;;;;;2.56;73.85;100291.83;1744926;82;21071;-89
2022/11/18 11:09:28;;;;;;;33.40;23.77;;;;;;;2.57;73.66;100297.39;1744823;81;21411;-88
2022/11/18 11:12:18;;;;;;;37.80;26.30;;;;;;;2.58;73.77;100296.48;1745022;81;21437;-88
2022/11/18 11:14:52;;;;;;;42.08;27.77;;;;;;;2.57;73.84;100300.81;1757594;80;20904;-87
2022/11/18 11:17:43;;;;;;;51.63;32.60;;;;;;;2.55;73.55;100303.90;1758454;81;21342;-88
2022/11/18 11:20:20;;;;;;;55.20;31.90;;;;;;;2.55;73.59;100306.94;1749517;81;21265;-87
2022/11/18 11:22:50;;;;;;;54.13;30.70;;;;;;;2.55;73.64;100310.83;1758198;80;21015;-90
2022/11/18 11:25:21;;;;;;;48.50;31.48;;;;;;;2.57;73.68;100305.98;1758555;81;21006;-89
2022/11/18 11:28:36;;;;;;;50.43;31.25;;;;;;;2.60;73.77;100310.22;1758942;81;21702;-87
2022/11/18 11:31:36;;;;;;;45.28;30.30;;;;;;;2.63;73.87;100315.32;1758309;81;21512;-89
2022/11/18 11:34:45;;;;;;;34.05;24.63;;;;;;;2.62;73.99;100308.43;1758754;81;21398;-87
2022/11/18 11:37:59;;;;;;;39.78;25.43;;;;;;;2.61;73.85;100321.83;1758617;81;20986;-89
2022/11/18 11:40:43;;;;;;;30.97;22.22;;;;;;;2.57;73.58;100324.56;1760688;81;20928;-89
2022/11/18 11:43:42;;;;;;;30.08;23.00;;;;;;;2.55;73.74;100322.47;1759966;81;20928;-90
2022/11/18 11:46:29;;;;;;;44.77;25.85;;;;;;;2.56;73.88;100326.77;1759424;80;20896;-89
2022/11/18 11:49:18;;;;;;;40.73;26.75;;;;;;;2.61;74.08;100331.34;1759738;81;21890;-89
2022/11/18 11:51:54;;;;;;;35.40;24.43;;;;;;;2.62;73.96;100344.25;1759199;81;21401;-89
2022/11/18 11:54:44;;;;;;;40.83;27.10;;;;;;;2.63;73.99;100352.40;1759588;80;20983;-89
2022/11/18 11:57:49;;;;;;;47.20;28.40;;;;;;;2.67;74.11;100350.57;1759344;80;20932;-89
2022/11/18 12:00:17;;;;;;;43.20;29.10;;;;;;;2.70;74.31;100350.01;1759336;81;20893;-88
2022/11/18 12:03:31;;;;;;;42.33;28.32;;;;;;;2.72;74.40;100355.60;1759147;81;21184;-89